Terminal Aerodrome Forecast
Issued by NWS

Home | Current Version | Previous Version | Text Only | Print | Product List | Glossary On
Versions: 1 2 3 4 5 6 7 8 9 10 11 12 13
000
FTUS42 KGSP 200528
TAFAND
TAF
KAND 200528Z 2006/2106 00000KT P6SM SCT120 OVC250
     FM200900 05004KT P6SM -RA OVC045
     FM201400 06006KT P6SM -RA OVC025
     FM201700 05006KT P6SM -RA OVC018
     FM210300 05004KT P6SM SCT040=

USA.gov is the U.S. government's official web portal to all federal, state and local government web resources and services.